sensor_id;sensor_type;location;lat;lon;timestamp;P1;durP1;ratioP1;P2;durP2;ratioP2
6095;SDS011;25081;42.698;23.298;2022-08-19T00:00:15;8.47;;;6.70;;
6095;SDS011;25081;42.698;23.298;2022-08-19T00:02:26;8.90;;;6.07;;
6095;SDS011;25081;42.698;23.298;2022-08-19T00:04:37;7.03;;;6.33;;
6095;SDS011;25081;42.698;23.298;2022-08-19T00:06:48;7.10;;;6.00;;
6095;SDS011;25081;42.698;23.298;2022-08-19T00:08:58;8.50;;;5.80;;
6095;SDS011;25081;42.698;23.298;2022-08-19T00:11:09;7.90;;;6.43;;
6095;SDS011;25081;42.698;23.298;2022-08-19T00:13:20;7.77;;;6.53;;
6095;SDS011;25081;42.698;23.298;2022-08-19T00:15:30;8.63;;;6.60;;
6095;SDS011;25081;42.698;23.298;2022-08-19T00:17:41;9.40;;;5.83;;
6095;SDS011;25081;42.698;23.298;2022-08-19T00:19:51;8.73;;;6.20;;
6095;SDS011;25081;42.698;23.298;2022-08-19T00:22:02;8.70;;;6.90;;
6095;SDS011;25081;42.698;23.298;2022-08-19T00:24:14;7.40;;;6.60;;
6095;SDS011;25081;42.698;23.298;2022-08-19T00:26:24;6.93;;;6.23;;
6095;SDS011;25081;42.698;23.298;2022-08-19T00:28:34;7.00;;;5.93;;
6095;SDS011;25081;42.698;23.298;2022-08-19T00:30:45;8.57;;;6.33;;
6095;SDS011;25081;42.698;23.298;2022-08-19T00:32:56;10.00;;;6.83;;
6095;SDS011;25081;42.698;23.298;2022-08-19T00:35:07;14.90;;;7.07;;
6095;SDS011;25081;42.698;23.298;2022-08-19T00:37:18;12.03;;;7.47;;
6095;SDS011;25081;42.698;23.298;2022-08-19T00:39:29;8.47;;;6.53;;
6095;SDS011;25081;42.698;23.298;2022-08-19T00:41:40;7.13;;;6.07;;
6095;SDS011;25081;42.698;23.298;2022-08-19T00:43:58;6.63;;;5.90;;
6095;SDS011;25081;42.698;23.298;2022-08-19T00:46:11;8.63;;;6.90;;
6095;SDS011;25081;42.698;23.298;2022-08-19T00:48:22;11.50;;;7.20;;
6095;SDS011;25081;42.698;23.298;2022-08-19T00:50:32;12.50;;;7.40;;
6095;SDS011;25081;42.698;23.298;2022-08-19T00:52:44;8.30;;;6.70;;
6095;SDS011;25081;42.698;23.298;2022-08-19T00:54:54;8.10;;;7.10;;
6095;SDS011;25081;42.698;23.298;2022-08-19T00:57:06;7.77;;;6.43;;
6095;SDS011;25081;42.698;23.298;2022-08-19T00:59:16;11.23;;;6.40;;
6095;SDS011;25081;42.698;23.298;2022-08-19T01:01:26;7.70;;;6.90;;
6095;SDS011;25081;42.698;23.298;2022-08-19T01:03:37;11.30;;;6.67;;
6095;SDS011;25081;42.698;23.298;2022-08-19T01:05:48;7.43;;;6.63;;
6095;SDS011;25081;42.698;23.298;2022-08-19T01:07:59;9.43;;;6.47;;
6095;SDS011;25081;42.698;23.298;2022-08-19T01:10:10;9.47;;;7.00;;
6095;SDS011;25081;42.698;23.298;2022-08-19T01:12:20;9.70;;;6.70;;
6095;SDS011;25081;42.698;23.298;2022-08-19T01:14:31;9.70;;;7.10;;
6095;SDS011;25081;42.698;23.298;2022-08-19T01:16:42;10.17;;;7.10;;
6095;SDS011;25081;42.698;23.298;2022-08-19T01:18:52;9.37;;;6.50;;
6095;SDS011;25081;42.698;23.298;2022-08-19T01:21:05;9.50;;;6.10;;
6095;SDS011;25081;42.698;23.298;2022-08-19T01:23:14;7.90;;;7.10;;
6095;SDS011;25081;42.698;23.298;2022-08-19T01:25:29;7.20;;;6.50;;
6095;SDS011;25081;42.698;23.298;2022-08-19T01:27:39;9.20;;;6.23;;
6095;SDS011;25081;42.698;23.298;2022-08-19T01:29:49;8.43;;;6.40;;
6095;SDS011;25081;42.698;23.298;2022-08-19T01:32:00;7.90;;;6.60;;
6095;SDS011;25081;42.698;23.298;2022-08-19T01:34:10;6.80;;;6.10;;
6095;SDS011;25081;42.698;23.298;2022-08-19T01:36:24;7.93;;;6.50;;
6095;SDS011;25081;42.698;23.298;2022-08-19T01:38:34;7.70;;;6.90;;
6095;SDS011;25081;42.698;23.298;2022-08-19T01:40:44;10.53;;;6.63;;
6095;SDS011;25081;42.698;23.298;2022-08-19T01:42:55;7.30;;;6.53;;
6095;SDS011;25081;42.698;23.298;2022-08-19T01:45:06;8.07;;;6.63;;
6095;SDS011;25081;42.698;23.298;2022-08-19T01:47:17;10.13;;;7.20;;
6095;SDS011;25081;42.698;23.298;2022-08-19T01:49:28;11.57;;;6.03;;
6095;SDS011;25081;42.698;23.298;2022-08-19T01:51:39;10.80;;;6.60;;
6095;SDS011;25081;42.698;23.298;2022-08-19T01:53:50;8.37;;;7.37;;
6095;SDS011;25081;42.698;23.298;2022-08-19T01:56:00;8.10;;;6.97;;
6095;SDS011;25081;42.698;23.298;2022-08-19T01:58:12;8.20;;;6.33;;
6095;SDS011;25081;42.698;23.298;2022-08-19T02:00:23;9.23;;;6.80;;
6095;SDS011;25081;42.698;23.298;2022-08-19T02:02:33;10.70;;;7.10;;
6095;SDS011;25081;42.698;23.298;2022-08-19T02:04:44;8.67;;;6.27;;
6095;SDS011;25081;42.698;23.298;2022-08-19T02:06:54;8.83;;;6.27;;
6095;SDS011;25081;42.698;23.298;2022-08-19T02:09:05;8.97;;;6.93;;
6095;SDS011;25081;42.698;23.298;2022-08-19T02:11:20;8.67;;;6.47;;
6095;SDS011;25081;42.698;23.298;2022-08-19T02:13:30;9.80;;;7.53;;
6095;SDS011;25081;42.698;23.298;2022-08-19T02:15:41;14.57;;;6.87;;
6095;SDS011;25081;42.698;23.298;2022-08-19T02:17:51;10.63;;;6.53;;
6095;SDS011;25081;42.698;23.298;2022-08-19T02:20:03;9.10;;;7.10;;
6095;SDS011;25081;42.698;23.298;2022-08-19T02:22:15;9.00;;;6.80;;
6095;SDS011;25081;42.698;23.298;2022-08-19T02:24:26;8.00;;;6.57;;
6095;SDS011;25081;42.698;23.298;2022-08-19T02:26:36;7.40;;;5.97;;
6095;SDS011;25081;42.698;23.298;2022-08-19T02:28:47;10.03;;;6.60;;
6095;SDS011;25081;42.698;23.298;2022-08-19T02:30:58;8.87;;;6.97;;
6095;SDS011;25081;42.698;23.298;2022-08-19T02:33:09;7.70;;;6.57;;
6095;SDS011;25081;42.698;23.298;2022-08-19T02:35:20;7.13;;;6.30;;
6095;SDS011;25081;42.698;23.298;2022-08-19T02:37:31;9.37;;;7.00;;
6095;SDS011;25081;42.698;23.298;2022-08-19T02:40:00;8.13;;;7.33;;
6095;SDS011;25081;42.698;23.298;2022-08-19T02:42:10;8.03;;;7.20;;
6095;SDS011;25081;42.698;23.298;2022-08-19T02:44:21;13.00;;;10.83;;
6095;SDS011;25081;42.698;23.298;2022-08-19T02:46:32;8.30;;;7.50;;
6095;SDS011;25081;42.698;23.298;2022-08-19T02:48:43;9.50;;;7.80;;
6095;SDS011;25081;42.698;23.298;2022-08-19T02:50:53;10.07;;;7.67;;
6095;SDS011;25081;42.698;23.298;2022-08-19T02:53:04;8.40;;;7.43;;
6095;SDS011;25081;42.698;23.298;2022-08-19T02:55:15;7.93;;;7.13;;
6095;SDS011;25081;42.698;23.298;2022-08-19T02:57:26;8.60;;;7.70;;
6095;SDS011;25081;42.698;23.298;2022-08-19T02:59:37;8.40;;;7.37;;
6095;SDS011;25081;42.698;23.298;2022-08-19T03:01:47;9.60;;;7.80;;
6095;SDS011;25081;42.698;23.298;2022-08-19T03:04:01;12.33;;;7.77;;
6095;SDS011;25081;42.698;23.298;2022-08-19T03:06:10;10.07;;;8.50;;
6095;SDS011;25081;42.698;23.298;2022-08-19T03:08:19;9.67;;;7.73;;
6095;SDS011;25081;42.698;23.298;2022-08-19T03:10:30;8.53;;;7.27;;
6095;SDS011;25081;42.698;23.298;2022-08-19T03:12:41;12.50;;;7.63;;
6095;SDS011;25081;42.698;23.298;2022-08-19T03:14:51;11.07;;;8.13;;
6095;SDS011;25081;42.698;23.298;2022-08-19T03:17:02;8.50;;;7.33;;
6095;SDS011;25081;42.698;23.298;2022-08-19T03:19:13;9.97;;;8.07;;
6095;SDS011;25081;42.698;23.298;2022-08-19T03:21:24;11.10;;;8.70;;
6095;SDS011;25081;42.698;23.298;2022-08-19T03:23:35;8.60;;;7.50;;
6095;SDS011;25081;42.698;23.298;2022-08-19T03:25:46;13.47;;;8.57;;
6095;SDS011;25081;42.698;23.298;2022-08-19T03:27:56;10.93;;;8.00;;
6095;SDS011;25081;42.698;23.298;2022-08-19T03:30:08;12.07;;;8.60;;
6095;SDS011;25081;42.698;23.298;2022-08-19T03:32:20;12.60;;;9.17;;
6095;SDS011;25081;42.698;23.298;2022-08-19T03:34:31;15.77;;;12.10;;
6095;SDS011;25081;42.698;23.298;2022-08-19T03:36:41;14.93;;;9.50;;
6095;SDS011;25081;42.698;23.298;2022-08-19T03:38:53;14.07;;;9.13;;
6095;SDS011;25081;42.698;23.298;2022-08-19T03:41:03;18.70;;;11.67;;
6095;SDS011;25081;42.698;23.298;2022-08-19T03:43:15;13.60;;;10.40;;
6095;SDS011;25081;42.698;23.298;2022-08-19T03:45:25;12.73;;;10.87;;
6095;SDS011;25081;42.698;23.298;2022-08-19T03:47:36;12.53;;;9.10;;
6095;SDS011;25081;42.698;23.298;2022-08-19T03:49:46;11.40;;;8.73;;
6095;SDS011;25081;42.698;23.298;2022-08-19T03:51:57;10.17;;;8.70;;
6095;SDS011;25081;42.698;23.298;2022-08-19T03:54:09;11.00;;;8.77;;
6095;SDS011;25081;42.698;23.298;2022-08-19T03:56:20;8.90;;;7.97;;
6095;SDS011;25081;42.698;23.298;2022-08-19T03:58:30;10.90;;;7.87;;
6095;SDS011;25081;42.698;23.298;2022-08-19T04:00:42;11.00;;;8.67;;
6095;SDS011;25081;42.698;23.298;2022-08-19T04:02:53;14.20;;;10.30;;
6095;SDS011;25081;42.698;23.298;2022-08-19T04:05:05;15.33;;;11.07;;
6095;SDS011;25081;42.698;23.298;2022-08-19T04:07:17;13.63;;;10.47;;
6095;SDS011;25081;42.698;23.298;2022-08-19T04:09:28;9.87;;;8.87;;
6095;SDS011;25081;42.698;23.298;2022-08-19T04:11:41;14.13;;;9.13;;
6095;SDS011;25081;42.698;23.298;2022-08-19T04:13:51;11.10;;;8.53;;
6095;SDS011;25081;42.698;23.298;2022-08-19T04:16:02;12.90;;;8.77;;
6095;SDS011;25081;42.698;23.298;2022-08-19T04:18:13;12.43;;;9.30;;
6095;SDS011;25081;42.698;23.298;2022-08-19T04:20:24;8.93;;;7.70;;
6095;SDS011;25081;42.698;23.298;2022-08-19T04:22:34;10.07;;;9.07;;
6095;SDS011;25081;42.698;23.298;2022-08-19T04:24:45;10.67;;;9.10;;
6095;SDS011;25081;42.698;23.298;2022-08-19T04:26:56;11.53;;;8.33;;
6095;SDS011;25081;42.698;23.298;2022-08-19T04:29:07;10.30;;;8.77;;
6095;SDS011;25081;42.698;23.298;2022-08-19T04:31:18;11.67;;;9.07;;
6095;SDS011;25081;42.698;23.298;2022-08-19T04:33:28;12.33;;;8.90;;
6095;SDS011;25081;42.698;23.298;2022-08-19T04:35:39;10.73;;;8.63;;
6095;SDS011;25081;42.698;23.298;2022-08-19T04:37:50;12.40;;;8.80;;
6095;SDS011;25081;42.698;23.298;2022-08-19T04:40:01;9.63;;;8.00;;
6095;SDS011;25081;42.698;23.298;2022-08-19T04:42:30;15.03;;;8.10;;
6095;SDS011;25081;42.698;23.298;2022-08-19T04:44:47;18.57;;;10.33;;
6095;SDS011;25081;42.698;23.298;2022-08-19T04:46:58;11.10;;;8.93;;
6095;SDS011;25081;42.698;23.298;2022-08-19T04:49:09;11.60;;;9.37;;
6095;SDS011;25081;42.698;23.298;2022-08-19T04:51:19;12.40;;;8.40;;
6095;SDS011;25081;42.698;23.298;2022-08-19T04:53:31;14.23;;;9.67;;
6095;SDS011;25081;42.698;23.298;2022-08-19T04:55:41;10.50;;;9.40;;
6095;SDS011;25081;42.698;23.298;2022-08-19T04:57:52;12.93;;;9.97;;
6095;SDS011;25081;42.698;23.298;2022-08-19T05:00:03;11.20;;;9.47;;
6095;SDS011;25081;42.698;23.298;2022-08-19T05:02:14;12.90;;;8.87;;
6095;SDS011;25081;42.698;23.298;2022-08-19T05:04:25;14.30;;;8.60;;
6095;SDS011;25081;42.698;23.298;2022-08-19T05:06:37;10.67;;;8.90;;
6095;SDS011;25081;42.698;23.298;2022-08-19T05:08:47;11.70;;;10.30;;
6095;SDS011;25081;42.698;23.298;2022-08-19T05:10:57;14.20;;;10.40;;
6095;SDS011;25081;42.698;23.298;2022-08-19T05:13:08;14.10;;;9.60;;
6095;SDS011;25081;42.698;23.298;2022-08-19T05:15:19;14.17;;;10.17;;
6095;SDS011;25081;42.698;23.298;2022-08-19T05:17:30;9.37;;;8.20;;
6095;SDS011;25081;42.698;23.298;2022-08-19T05:19:40;10.80;;;9.70;;
6095;SDS011;25081;42.698;23.298;2022-08-19T05:22:08;11.70;;;9.40;;
6095;SDS011;25081;42.698;23.298;2022-08-19T05:24:37;8.80;;;7.90;;
6095;SDS011;25081;42.698;23.298;2022-08-19T05:26:49;17.83;;;9.37;;
6095;SDS011;25081;42.698;23.298;2022-08-19T05:28:58;9.50;;;8.50;;
6095;SDS011;25081;42.698;23.298;2022-08-19T05:31:09;9.37;;;8.47;;
6095;SDS011;25081;42.698;23.298;2022-08-19T05:33:20;9.00;;;8.10;;
6095;SDS011;25081;42.698;23.298;2022-08-19T05:35:30;10.70;;;8.73;;
6095;SDS011;25081;42.698;23.298;2022-08-19T05:37:41;11.57;;;8.83;;
6095;SDS011;25081;42.698;23.298;2022-08-19T05:39:52;11.93;;;9.30;;
6095;SDS011;25081;42.698;23.298;2022-08-19T05:42:05;10.33;;;8.20;;
6095;SDS011;25081;42.698;23.298;2022-08-19T05:44:15;10.40;;;8.57;;
6095;SDS011;25081;42.698;23.298;2022-08-19T05:46:25;13.50;;;8.57;;
6095;SDS011;25081;42.698;23.298;2022-08-19T05:48:36;11.70;;;8.77;;
6095;SDS011;25081;42.698;23.298;2022-08-19T05:50:47;10.20;;;9.10;;
6095;SDS011;25081;42.698;23.298;2022-08-19T05:52:58;10.97;;;9.03;;
6095;SDS011;25081;42.698;23.298;2022-08-19T05:55:09;19.37;;;9.30;;
6095;SDS011;25081;42.698;23.298;2022-08-19T05:57:20;13.07;;;8.40;;
6095;SDS011;25081;42.698;23.298;2022-08-19T05:59:31;11.57;;;8.43;;
6095;SDS011;25081;42.698;23.298;2022-08-19T06:01:42;14.90;;;9.07;;
6095;SDS011;25081;42.698;23.298;2022-08-19T06:03:53;35.23;;;10.93;;
6095;SDS011;25081;42.698;23.298;2022-08-19T06:06:04;12.70;;;8.83;;
6095;SDS011;25081;42.698;23.298;2022-08-19T06:08:14;11.63;;;8.13;;
6095;SDS011;25081;42.698;23.298;2022-08-19T06:10:25;12.33;;;8.47;;
6095;SDS011;25081;42.698;23.298;2022-08-19T06:12:35;11.30;;;8.07;;
6095;SDS011;25081;42.698;23.298;2022-08-19T06:14:46;13.03;;;8.33;;
6095;SDS011;25081;42.698;23.298;2022-08-19T06:16:57;10.80;;;8.00;;
6095;SDS011;25081;42.698;23.298;2022-08-19T06:19:08;8.43;;;7.63;;
6095;SDS011;25081;42.698;23.298;2022-08-19T06:21:19;8.63;;;7.03;;
6095;SDS011;25081;42.698;23.298;2022-08-19T06:23:30;8.87;;;7.97;;
6095;SDS011;25081;42.698;23.298;2022-08-19T06:25:41;8.47;;;7.60;;
6095;SDS011;25081;42.698;23.298;2022-08-19T06:27:51;9.90;;;7.87;;
6095;SDS011;25081;42.698;23.298;2022-08-19T06:30:02;9.63;;;8.60;;
6095;SDS011;25081;42.698;23.298;2022-08-19T06:32:14;9.80;;;7.80;;
6095;SDS011;25081;42.698;23.298;2022-08-19T06:34:24;15.47;;;10.10;;
6095;SDS011;25081;42.698;23.298;2022-08-19T06:36:37;15.93;;;8.73;;
6095;SDS011;25081;42.698;23.298;2022-08-19T06:38:46;9.47;;;8.23;;
6095;SDS011;25081;42.698;23.298;2022-08-19T06:41:00;9.03;;;8.00;;
6095;SDS011;25081;42.698;23.298;2022-08-19T06:43:11;10.90;;;8.07;;
6095;SDS011;25081;42.698;23.298;2022-08-19T06:45:22;9.33;;;8.33;;
6095;SDS011;25081;42.698;23.298;2022-08-19T06:47:33;10.80;;;7.87;;
6095;SDS011;25081;42.698;23.298;2022-08-19T06:49:44;9.53;;;7.70;;
6095;SDS011;25081;42.698;23.298;2022-08-19T06:51:55;11.50;;;7.70;;
6095;SDS011;25081;42.698;23.298;2022-08-19T06:54:06;11.20;;;8.33;;
6095;SDS011;25081;42.698;23.298;2022-08-19T06:56:17;8.40;;;7.30;;
6095;SDS011;25081;42.698;23.298;2022-08-19T06:58:27;8.60;;;7.40;;
6095;SDS011;25081;42.698;23.298;2022-08-19T07:00:40;8.50;;;7.60;;
6095;SDS011;25081;42.698;23.298;2022-08-19T07:02:51;9.80;;;7.33;;
6095;SDS011;25081;42.698;23.298;2022-08-19T07:05:02;8.50;;;7.70;;
6095;SDS011;25081;42.698;23.298;2022-08-19T07:07:14;9.37;;;7.90;;
6095;SDS011;25081;42.698;23.298;2022-08-19T07:09:25;9.13;;;7.70;;
6095;SDS011;25081;42.698;23.298;2022-08-19T07:11:35;7.90;;;6.73;;
6095;SDS011;25081;42.698;23.298;2022-08-19T07:13:46;9.03;;;7.07;;
6095;SDS011;25081;42.698;23.298;2022-08-19T07:15:57;8.57;;;7.67;;
6095;SDS011;25081;42.698;23.298;2022-08-19T07:18:07;8.47;;;7.33;;
6095;SDS011;25081;42.698;23.298;2022-08-19T07:20:18;9.03;;;7.43;;
6095;SDS011;25081;42.698;23.298;2022-08-19T07:22:29;10.20;;;7.40;;
6095;SDS011;25081;42.698;23.298;2022-08-19T07:24:39;8.27;;;7.43;;
6095;SDS011;25081;42.698;23.298;2022-08-19T07:26:51;8.50;;;7.13;;
6095;SDS011;25081;42.698;23.298;2022-08-19T07:29:01;8.47;;;7.33;;
6095;SDS011;25081;42.698;23.298;2022-08-19T07:31:12;12.33;;;8.70;;
6095;SDS011;25081;42.698;23.298;2022-08-19T07:33:22;8.23;;;7.40;;
6095;SDS011;25081;42.698;23.298;2022-08-19T07:35:33;9.90;;;7.80;;
6095;SDS011;25081;42.698;23.298;2022-08-19T07:37:43;8.50;;;7.60;;
6095;SDS011;25081;42.698;23.298;2022-08-19T07:39:54;10.43;;;7.67;;
6095;SDS011;25081;42.698;23.298;2022-08-19T07:42:08;13.33;;;8.00;;
6095;SDS011;25081;42.698;23.298;2022-08-19T07:44:16;8.07;;;7.20;;
6095;SDS011;25081;42.698;23.298;2022-08-19T07:46:27;8.43;;;6.80;;
6095;SDS011;25081;42.698;23.298;2022-08-19T07:48:37;10.43;;;7.53;;
6095;SDS011;25081;42.698;23.298;2022-08-19T07:50:48;8.90;;;6.73;;
6095;SDS011;25081;42.698;23.298;2022-08-19T07:52:58;9.17;;;8.27;;
6095;SDS011;25081;42.698;23.298;2022-08-19T07:55:09;6.93;;;6.20;;
6095;SDS011;25081;42.698;23.298;2022-08-19T07:57:20;8.47;;;7.07;;
6095;SDS011;25081;42.698;23.298;2022-08-19T07:59:31;7.77;;;7.03;;
6095;SDS011;25081;42.698;23.298;2022-08-19T08:01:41;7.40;;;6.70;;
6095;SDS011;25081;42.698;23.298;2022-08-19T08:03:53;8.57;;;7.13;;
6095;SDS011;25081;42.698;23.298;2022-08-19T08:06:21;9.03;;;6.90;;
6095;SDS011;25081;42.698;23.298;2022-08-19T08:08:49;7.73;;;6.73;;
6095;SDS011;25081;42.698;23.298;2022-08-19T08:11:18;8.23;;;6.33;;
6095;SDS011;25081;42.698;23.298;2022-08-19T08:13:28;7.50;;;6.50;;
6095;SDS011;25081;42.698;23.298;2022-08-19T08:15:39;6.83;;;6.10;;
6095;SDS011;25081;42.698;23.298;2022-08-19T08:17:49;9.67;;;7.10;;
6095;SDS011;25081;42.698;23.298;2022-08-19T08:20:00;7.27;;;5.93;;
6095;SDS011;25081;42.698;23.298;2022-08-19T08:22:13;8.40;;;6.30;;
6095;SDS011;25081;42.698;23.298;2022-08-19T08:24:22;7.37;;;6.27;;
6095;SDS011;25081;42.698;23.298;2022-08-19T08:26:33;10.93;;;6.80;;
6095;SDS011;25081;42.698;23.298;2022-08-19T08:28:43;8.50;;;6.30;;
6095;SDS011;25081;42.698;23.298;2022-08-19T08:30:54;7.27;;;6.57;;
6095;SDS011;25081;42.698;23.298;2022-08-19T08:33:05;5.80;;;5.30;;
6095;SDS011;25081;42.698;23.298;2022-08-19T08:35:16;7.93;;;6.27;;
6095;SDS011;25081;42.698;23.298;2022-08-19T08:37:26;7.93;;;6.30;;
6095;SDS011;25081;42.698;23.298;2022-08-19T08:39:37;6.50;;;5.90;;
6095;SDS011;25081;42.698;23.298;2022-08-19T08:41:49;7.00;;;6.30;;
6095;SDS011;25081;42.698;23.298;2022-08-19T08:44:00;6.57;;;5.67;;
6095;SDS011;25081;42.698;23.298;2022-08-19T08:46:12;7.07;;;5.67;;
6095;SDS011;25081;42.698;23.298;2022-08-19T08:48:24;6.23;;;5.10;;
6095;SDS011;25081;42.698;23.298;2022-08-19T08:50:36;9.30;;;5.90;;
6095;SDS011;25081;42.698;23.298;2022-08-19T08:52:46;9.87;;;6.40;;
6095;SDS011;25081;42.698;23.298;2022-08-19T08:54:57;8.60;;;6.73;;
6095;SDS011;25081;42.698;23.298;2022-08-19T08:57:09;6.07;;;5.47;;
6095;SDS011;25081;42.698;23.298;2022-08-19T08:59:21;7.70;;;5.67;;
6095;SDS011;25081;42.698;23.298;2022-08-19T09:01:31;5.60;;;4.90;;
6095;SDS011;25081;42.698;23.298;2022-08-19T09:03:41;7.77;;;5.77;;
6095;SDS011;25081;42.698;23.298;2022-08-19T09:05:56;8.13;;;5.90;;
6095;SDS011;25081;42.698;23.298;2022-08-19T09:08:10;5.90;;;5.30;;
6095;SDS011;25081;42.698;23.298;2022-08-19T09:10:21;7.30;;;5.10;;
6095;SDS011;25081;42.698;23.298;2022-08-19T09:12:34;7.47;;;5.90;;
6095;SDS011;25081;42.698;23.298;2022-08-19T09:14:45;6.10;;;5.50;;
6095;SDS011;25081;42.698;23.298;2022-08-19T09:16:55;6.40;;;5.67;;
6095;SDS011;25081;42.698;23.298;2022-08-19T09:19:07;7.70;;;5.13;;
6095;SDS011;25081;42.698;23.298;2022-08-19T09:21:17;7.60;;;4.53;;
6095;SDS011;25081;42.698;23.298;2022-08-19T09:23:27;7.00;;;4.90;;
6095;SDS011;25081;42.698;23.298;2022-08-19T09:25:38;6.53;;;5.27;;
6095;SDS011;25081;42.698;23.298;2022-08-19T09:27:49;6.50;;;4.73;;
6095;SDS011;25081;42.698;23.298;2022-08-19T09:29:59;5.63;;;3.83;;
6095;SDS011;25081;42.698;23.298;2022-08-19T09:32:10;14.73;;;4.53;;
6095;SDS011;25081;42.698;23.298;2022-08-19T09:34:20;6.00;;;4.43;;
6095;SDS011;25081;42.698;23.298;2022-08-19T09:36:31;5.47;;;4.43;;
6095;SDS011;25081;42.698;23.298;2022-08-19T09:38:42;5.53;;;5.00;;
6095;SDS011;25081;42.698;23.298;2022-08-19T09:40:52;3.60;;;3.30;;
6095;SDS011;25081;42.698;23.298;2022-08-19T09:43:03;5.83;;;3.73;;
6095;SDS011;25081;42.698;23.298;2022-08-19T09:45:14;5.33;;;3.63;;
6095;SDS011;25081;42.698;23.298;2022-08-19T09:47:24;6.40;;;5.10;;
6095;SDS011;25081;42.698;23.298;2022-08-19T09:49:35;5.90;;;4.50;;
6095;SDS011;25081;42.698;23.298;2022-08-19T09:51:46;4.43;;;4.03;;
6095;SDS011;25081;42.698;23.298;2022-08-19T09:54:00;4.60;;;4.20;;
6095;SDS011;25081;42.698;23.298;2022-08-19T09:56:10;9.00;;;6.00;;
6095;SDS011;25081;42.698;23.298;2022-08-19T09:58:21;4.07;;;3.67;;
6095;SDS011;25081;42.698;23.298;2022-08-19T10:00:33;7.80;;;4.60;;
6095;SDS011;25081;42.698;23.298;2022-08-19T10:02:44;5.67;;;4.60;;
6095;SDS011;25081;42.698;23.298;2022-08-19T10:04:54;4.12;;;3.72;;
6095;SDS011;25081;42.698;23.298;2022-08-19T10:07:23;9.20;;;4.00;;
6095;SDS011;25081;42.698;23.298;2022-08-19T10:09:34;5.50;;;4.30;;
6095;SDS011;25081;42.698;23.298;2022-08-19T10:11:44;6.77;;;5.00;;
6095;SDS011;25081;42.698;23.298;2022-08-19T10:13:55;4.47;;;4.07;;
6095;SDS011;25081;42.698;23.298;2022-08-19T10:16:07;5.83;;;4.25;;
6095;SDS011;25081;42.698;23.298;2022-08-19T10:18:18;5.40;;;4.80;;
6095;SDS011;25081;42.698;23.298;2022-08-19T10:20:28;4.63;;;4.10;;
6095;SDS011;25081;42.698;23.298;2022-08-19T10:22:39;5.20;;;4.70;;
6095;SDS011;25081;42.698;23.298;2022-08-19T10:24:49;5.10;;;4.47;;
6095;SDS011;25081;42.698;23.298;2022-08-19T10:27:01;5.00;;;4.50;;
6095;SDS011;25081;42.698;23.298;2022-08-19T10:29:12;4.77;;;4.37;;
6095;SDS011;25081;42.698;23.298;2022-08-19T10:31:23;4.60;;;4.20;;
6095;SDS011;25081;42.698;23.298;2022-08-19T10:33:33;6.37;;;5.37;;
6095;SDS011;25081;42.698;23.298;2022-08-19T10:35:44;5.10;;;4.60;;
6095;SDS011;25081;42.698;23.298;2022-08-19T10:37:55;4.97;;;4.50;;
6095;SDS011;25081;42.698;23.298;2022-08-19T10:40:07;5.73;;;4.93;;
6095;SDS011;25081;42.698;23.298;2022-08-19T10:42:19;7.83;;;4.00;;
6095;SDS011;25081;42.698;23.298;2022-08-19T10:44:30;5.70;;;5.20;;
6095;SDS011;25081;42.698;23.298;2022-08-19T10:46:41;5.77;;;5.17;;
6095;SDS011;25081;42.698;23.298;2022-08-19T10:48:51;9.23;;;5.03;;
6095;SDS011;25081;42.698;23.298;2022-08-19T10:51:02;6.33;;;5.73;;
6095;SDS011;25081;42.698;23.298;2022-08-19T10:53:37;6.90;;;5.00;;
6095;SDS011;25081;42.698;23.298;2022-08-19T10:55:48;5.97;;;5.37;;
6095;SDS011;25081;42.698;23.298;2022-08-19T10:58:17;7.53;;;5.30;;
6095;SDS011;25081;42.698;23.298;2022-08-19T11:00:27;5.70;;;4.97;;
6095;SDS011;25081;42.698;23.298;2022-08-19T11:02:38;4.70;;;4.27;;
6095;SDS011;25081;42.698;23.298;2022-08-19T11:04:50;7.23;;;5.37;;
6095;SDS011;25081;42.698;23.298;2022-08-19T11:07:00;4.90;;;4.40;;
6095;SDS011;25081;42.698;23.298;2022-08-19T11:09:11;4.83;;;4.37;;
6095;SDS011;25081;42.698;23.298;2022-08-19T11:11:22;5.10;;;4.67;;
6095;SDS011;25081;42.698;23.298;2022-08-19T11:13:33;5.77;;;5.20;;
6095;SDS011;25081;42.698;23.298;2022-08-19T11:15:43;6.13;;;4.83;;
6095;SDS011;25081;42.698;23.298;2022-08-19T11:17:54;6.67;;;5.00;;
6095;SDS011;25081;42.698;23.298;2022-08-19T11:20:06;6.50;;;5.17;;
6095;SDS011;25081;42.698;23.298;2022-08-19T11:22:17;4.90;;;4.50;;
6095;SDS011;25081;42.698;23.298;2022-08-19T11:24:28;7.03;;;4.77;;
6095;SDS011;25081;42.698;23.298;2022-08-19T11:26:39;6.73;;;5.00;;
6095;SDS011;25081;42.698;23.298;2022-08-19T11:28:49;5.60;;;5.00;;
6095;SDS011;25081;42.698;23.298;2022-08-19T11:31:00;6.10;;;4.60;;
6095;SDS011;25081;42.698;23.298;2022-08-19T11:33:11;5.93;;;4.60;;
6095;SDS011;25081;42.698;23.298;2022-08-19T11:35:22;6.60;;;5.13;;
6095;SDS011;25081;42.698;23.298;2022-08-19T11:37:33;5.60;;;5.10;;
6095;SDS011;25081;42.698;23.298;2022-08-19T11:39:43;5.47;;;4.80;;
6095;SDS011;25081;42.698;23.298;2022-08-19T11:41:54;6.73;;;5.80;;
6095;SDS011;25081;42.698;23.298;2022-08-19T11:44:05;6.60;;;5.00;;
6095;SDS011;25081;42.698;23.298;2022-08-19T11:46:16;6.60;;;4.93;;
6095;SDS011;25081;42.698;23.298;2022-08-19T11:48:26;5.43;;;4.60;;
6095;SDS011;25081;42.698;23.298;2022-08-19T11:50:37;5.30;;;4.80;;
6095;SDS011;25081;42.698;23.298;2022-08-19T11:52:48;5.70;;;5.10;;
6095;SDS011;25081;42.698;23.298;2022-08-19T11:55:00;7.47;;;5.20;;
6095;SDS011;25081;42.698;23.298;2022-08-19T11:57:11;5.17;;;4.50;;
6095;SDS011;25081;42.698;23.298;2022-08-19T11:59:21;4.87;;;3.93;;
6095;SDS011;25081;42.698;23.298;2022-08-19T12:01:32;5.07;;;4.57;;
6095;SDS011;25081;42.698;23.298;2022-08-19T12:03:43;6.20;;;5.60;;
6095;SDS011;25081;42.698;23.298;2022-08-19T12:05:54;5.40;;;4.90;;
6095;SDS011;25081;42.698;23.298;2022-08-19T12:08:05;6.13;;;4.23;;
6095;SDS011;25081;42.698;23.298;2022-08-19T12:10:16;7.63;;;4.67;;
6095;SDS011;25081;42.698;23.298;2022-08-19T12:12:27;4.87;;;4.37;;
6095;SDS011;25081;42.698;23.298;2022-08-19T12:14:37;5.47;;;4.90;;
6095;SDS011;25081;42.698;23.298;2022-08-19T12:16:48;6.23;;;5.63;;
6095;SDS011;25081;42.698;23.298;2022-08-19T12:18:59;5.17;;;4.63;;
6095;SDS011;25081;42.698;23.298;2022-08-19T12:21:10;8.23;;;4.73;;
6095;SDS011;25081;42.698;23.298;2022-08-19T12:23:20;5.83;;;4.90;;
6095;SDS011;25081;42.698;23.298;2022-08-19T12:25:32;7.23;;;5.23;;
6095;SDS011;25081;42.698;23.298;2022-08-19T12:27:42;6.07;;;5.03;;
6095;SDS011;25081;42.698;23.298;2022-08-19T12:29:53;5.33;;;4.80;;
6095;SDS011;25081;42.698;23.298;2022-08-19T12:32:04;6.03;;;4.63;;
6095;SDS011;25081;42.698;23.298;2022-08-19T12:34:15;7.90;;;4.50;;
6095;SDS011;25081;42.698;23.298;2022-08-19T12:36:26;4.77;;;4.33;;
6095;SDS011;25081;42.698;23.298;2022-08-19T12:38:36;5.10;;;4.60;;
6095;SDS011;25081;42.698;23.298;2022-08-19T12:40:48;5.87;;;4.83;;
6095;SDS011;25081;42.698;23.298;2022-08-19T12:42:58;5.20;;;4.70;;
6095;SDS011;25081;42.698;23.298;2022-08-19T12:45:10;7.23;;;4.70;;
6095;SDS011;25081;42.698;23.298;2022-08-19T12:47:20;5.63;;;4.70;;
6095;SDS011;25081;42.698;23.298;2022-08-19T12:49:31;5.63;;;4.87;;
6095;SDS011;25081;42.698;23.298;2022-08-19T12:51:42;6.07;;;5.47;;
6095;SDS011;25081;42.698;23.298;2022-08-19T12:53:53;6.43;;;4.60;;
6095;SDS011;25081;42.698;23.298;2022-08-19T12:56:04;6.10;;;4.70;;
6095;SDS011;25081;42.698;23.298;2022-08-19T12:58:22;6.53;;;5.90;;
6095;SDS011;25081;42.698;23.298;2022-08-19T13:00:33;6.70;;;5.10;;
6095;SDS011;25081;42.698;23.298;2022-08-19T13:02:45;6.13;;;5.13;;
6095;SDS011;25081;42.698;23.298;2022-08-19T13:04:55;6.43;;;4.83;;
6095;SDS011;25081;42.698;23.298;2022-08-19T13:07:06;7.83;;;5.10;;